Time;durP1;ratioP1;P1;durP2;ratioP2;P2;SDS_P1;SDS_P2;PMS_P1;PMS_P2;Temp;Humidity;BMP_temperature;BMP_pressure;BME280_temperature;BME280_humidity;BME280_pressure;Samples;Min_cycle;Max_cycle;Signal;HPM_P1;HPM_P2
2023/02/13 00:00:46;;;;;;;58.20;33.10;;;5.30;99.90;;;4.94;100.00;99716.63;5056242;28;20495;-67
2023/02/13 00:03:16;;;;;;;50.35;29.75;;;5.30;99.90;;;5.06;100.00;99711.66;5056364;28;20048;-67
2023/02/13 00:05:43;;;;;;;49.53;29.30;;;5.30;99.90;;;4.95;100.00;99710.63;5057022;28;20411;-66
2023/02/13 00:08:11;;;;;;;55.17;30.65;;;5.30;99.90;;;4.94;100.00;99704.63;5072190;28;20052;-67
2023/02/13 00:10:38;;;;;;;70.35;34.83;;;5.30;99.90;;;4.93;100.00;99702.06;5055560;28;20114;-66
2023/02/13 00:13:05;;;;;;;65.30;33.13;;;5.20;99.90;;;4.84;100.00;99696.78;5068489;28;20115;-67
2023/02/13 00:15:32;;;;;;;70.15;34.80;;;5.30;99.90;;;4.81;100.00;99693.31;5058759;28;20051;-66
2023/02/13 00:18:01;;;;;;;51.70;30.00;;;5.20;99.90;;;4.70;100.00;99696.53;5064679;28;20049;-66
2023/02/13 00:20:28;;;;;;;54.10;30.67;;;5.20;99.90;;;4.78;100.00;99695.81;5064510;28;20059;-66
2023/02/13 00:22:57;;;;;;;50.92;28.85;;;5.20;99.90;;;4.69;100.00;99699.97;5058679;28;20063;-66
2023/02/13 00:25:24;;;;;;;51.97;29.08;;;5.20;99.90;;;4.70;100.00;99702.56;5063250;28;20080;-66
2023/02/13 00:27:52;;;;;;;46.40;27.75;;;5.20;99.90;;;4.92;100.00;99697.72;5060261;28;20045;-67
2023/02/13 00:30:20;;;;;;;43.42;26.58;;;5.20;99.90;;;4.99;100.00;99696.97;5059625;28;20140;-67
2023/02/13 00:32:47;;;;;;;46.85;27.85;;;5.20;99.90;;;4.98;100.00;99697.84;5061185;28;20452;-67
2023/02/13 00:35:14;;;;;;;65.35;32.05;;;5.20;99.90;;;4.78;100.00;99694.97;5063743;28;20052;-66
2023/02/13 00:37:41;;;;;;;53.10;29.95;;;5.20;99.90;;;4.90;100.00;99699.41;5071096;28;20052;-67
2023/02/13 00:40:09;;;;;;;43.33;26.60;;;5.10;99.90;;;4.76;100.00;99700.06;5060777;28;20055;-66
2023/02/13 00:42:36;;;;;;;47.65;27.65;;;5.20;99.90;;;4.90;100.00;99699.41;5060936;28;20041;-67
2023/02/13 00:45:04;;;;;;;64.63;32.15;;;5.10;99.90;;;4.75;100.00;99693.22;5065704;28;20389;-67
2023/02/13 00:47:30;;;;;;;45.78;26.83;;;5.10;99.90;;;4.77;100.00;99701.81;5062639;28;20052;-67
2023/02/13 00:49:57;;;;;;;66.63;33.25;;;5.10;99.90;;;4.66;100.00;99705.09;5063869;28;20501;-67
2023/02/13 00:52:24;;;;;;;46.17;28.27;;;5.10;99.90;;;4.57;100.00;99706.66;5066464;28;20519;-67
2023/02/13 00:54:51;;;;;;;63.28;33.63;;;5.00;99.90;;;4.55;100.00;99705.75;5063548;28;20135;-67
2023/02/13 00:57:18;;;;;;;50.45;28.25;;;5.00;99.90;;;4.61;100.00;99710.16;5063724;28;20700;-67
2023/02/13 00:59:45;;;;;;;44.95;26.95;;;5.00;99.90;;;4.50;100.00;99711.69;5057426;28;20048;-66
2023/02/13 01:02:12;;;;;;;41.80;26.25;;;5.00;99.90;;;4.66;100.00;99715.38;5060349;28;20045;-67
2023/02/13 01:04:39;;;;;;;49.17;27.02;;;5.00;99.90;;;4.79;100.00;99714.72;5061570;28;20044;-67
2023/02/13 01:07:06;;;;;;;46.30;26.95;;;5.10;99.90;;;4.63;100.00;99713.63;5058839;28;20048;-66
2023/02/13 01:09:33;;;;;;;48.78;26.83;;;5.00;99.90;;;4.72;100.00;99706.03;5057798;28;20076;-67
2023/02/13 01:12:00;;;;;;;42.97;24.55;;;5.00;99.90;;;4.66;100.00;99705.09;5054998;28;20065;-66
2023/02/13 01:14:27;;;;;;;42.30;24.33;;;5.00;99.90;;;4.70;100.00;99697.44;5056666;28;20518;-66
2023/02/13 01:16:54;;;;;;;37.80;24.20;;;5.00;99.90;;;4.68;100.00;99698.25;5059858;28;20352;-66
2023/02/13 01:19:21;;;;;;;38.63;23.58;;;4.90;99.90;;;4.43;100.00;99695.28;5061729;28;20055;-66
2023/02/13 01:21:48;;;;;;;41.83;23.73;;;4.90;99.90;;;4.61;100.00;99697.28;5057007;28;20052;-66
2023/02/13 01:24:16;;;;;;;37.80;23.08;;;4.80;99.90;;;4.53;100.00;99691.16;5060590;28;20045;-67
2023/02/13 01:26:43;;;;;;;51.50;27.77;;;;;;;4.37;100.00;99695.19;5058983;28;20055;-67
2023/02/13 01:29:12;;;;;;;54.50;28.52;;;4.70;99.90;;;4.36;100.00;99690.91;5058991;28;20482;-66
2023/02/13 01:31:39;;;;;;;54.30;30.38;;;4.60;99.90;;;4.34;100.00;99696.00;5057375;28;20049;-66
2023/02/13 01:34:06;;;;;;;41.92;25.25;;;4.60;99.90;;;4.38;100.00;99697.78;5059203;28;20076;-66
2023/02/13 01:36:33;;;;;;;43.80;25.85;;;4.60;99.90;;;4.18;100.00;99694.88;5055796;28;20449;-66
2023/02/13 01:39:00;;;;;;;42.65;25.15;;;4.60;99.90;;;4.40;100.00;99695.22;5055574;28;20036;-67
2023/02/13 01:41:27;;;;;;;69.47;30.65;;;4.60;99.90;;;3.99;100.00;99697.97;5055247;28;20052;-66
2023/02/13 01:43:58;;;;;;;49.38;27.17;;;4.50;99.90;;;4.11;100.00;99700.75;5056400;28;20498;-66
2023/02/13 01:46:32;;;;;;;42.08;24.58;;;4.50;99.90;;;4.02;100.00;99697.19;5061008;28;20430;-66
2023/02/13 01:49:33;;;;;;;43.35;25.25;;;4.40;99.90;;;4.00;100.00;99697.13;5063182;28;20388;-66
2023/02/13 01:52:00;;;;;;;61.58;29.55;;;4.40;99.90;;;4.02;100.00;99700.59;5054610;28;20509;-66
2023/02/13 01:54:30;;;;;;;55.45;26.90;;;4.30;99.90;;;3.89;100.00;99699.50;5056214;28;20130;-66
2023/02/13 01:57:10;;;;;;;50.17;26.77;;;4.30;99.90;;;4.01;100.00;99703.13;5055445;28;20148;-67
2023/02/13 01:59:46;;;;;;;64.57;30.42;;;4.20;99.90;;;3.94;100.00;99699.59;5060929;28;20044;-67
2023/02/13 02:02:13;;;;;;;42.45;24.02;;;4.30;99.90;;;4.06;100.00;99697.25;5051725;28;20054;-67
2023/02/13 02:04:42;;;;;;;54.38;27.73;;;4.30;99.90;;;3.98;100.00;99691.97;5062459;28;20239;-66
2023/02/13 02:07:29;;;;;;;44.00;26.67;;;4.30;99.90;;;3.75;100.00;99695.81;5088165;28;20075;-66
2023/02/13 02:10:01;;;;;;;74.68;33.22;;;;;;;3.79;100.00;99692.47;5057504;28;20044;-66
2023/02/13 02:12:52;;;;;;;46.13;27.08;;;;;;;3.96;100.00;99698.78;5062563;28;20088;-66
2023/02/13 02:15:20;;;;;;;43.58;25.25;;;;;;;3.80;100.00;99694.19;5057164;28;20135;-66
2023/02/13 02:17:48;;;;;;;62.17;28.83;;;;;;;3.73;100.00;99690.66;5054750;28;20041;-66
2023/02/13 02:20:30;;;;;;;55.95;28.20;;;;;;;3.83;100.00;99688.25;5053734;28;20045;-66
2023/02/13 02:23:26;;;;;;;48.47;26.58;;;;;;;3.71;100.00;99689.75;5052868;28;20075;-66
2023/02/13 02:26:47;;;;;;;43.67;25.35;;;4.10;99.90;;;3.71;100.00;99681.19;5055142;28;20096;-66
2023/02/13 02:30:01;;;;;;;49.10;27.52;;;4.10;99.90;;;3.63;100.00;99677.63;5054245;28;20451;-66
2023/02/13 02:32:59;;;;;;;47.80;26.45;;;4.00;99.90;;;3.54;100.00;99686.00;5045635;28;20044;-66
2023/02/13 02:35:44;;;;;;;43.85;24.83;;;4.00;99.90;;;3.44;100.00;99682.38;5052094;28;20059;-66
2023/02/13 02:38:42;;;;;;;44.47;24.45;;;3.90;99.90;;;3.45;100.00;99676.41;5053572;28;20060;-66
2023/02/13 02:41:47;;;;;;;105.32;32.50;;;3.90;99.90;;;3.42;100.00;99681.50;5060423;28;20037;-66
2023/02/13 02:44:51;;;;;;;40.40;23.20;;;3.80;99.90;;;3.39;100.00;99683.13;5058219;28;20113;-66
2023/02/13 02:50:29;;;;;;;47.60;24.67;;;3.80;99.90;;;3.47;100.00;99679.03;5053625;28;20055;-66
2023/02/13 02:53:07;;;;;;;50.40;24.83;;;3.80;99.90;;;3.31;100.00;99678.72;5054572;28;20049;-66
2023/02/13 02:56:07;;;;;;;54.47;25.88;;;3.70;99.90;;;3.41;100.00;99686.59;5045425;28;20315;-66
2023/02/13 03:07:26;;;;;;;62.40;25.85;;;3.70;99.90;;;3.36;100.00;99686.50;5057041;28;20063;-66
2023/02/13 03:22:17;;;;;;;59.65;24.45;;;3.60;99.90;;;3.24;100.00;99691.38;5056442;28;20090;-66
2023/02/13 03:22:17;;;;;;;148.15;28.75;;;3.60;99.90;;;3.14;100.00;99696.31;5056991;28;20554;-66
2023/02/13 03:25:07;;;;;;;93.90;26.63;;;3.60;99.90;;;3.22;100.00;99696.50;5048167;28;20069;-67
2023/02/13 03:30:42;;;;;;;41.30;21.23;;;3.60;99.90;;;3.22;100.00;99690.50;5060279;28;20128;-66
2023/02/13 03:33:27;;;;;;;42.13;21.48;;;3.60;99.90;;;3.13;100.00;99688.59;5056121;28;20049;-66
2023/02/13 03:39:33;;;;;;;43.03;22.42;;;3.50;99.90;;;3.18;100.00;99693.84;5051267;28;20530;-66
2023/02/13 03:42:07;;;;;;;38.33;21.20;;;3.50;99.90;;;3.12;100.00;99680.06;5054006;28;20064;-66
2023/02/13 03:44:41;;;;;;;34.70;20.08;;;3.50;99.90;;;3.10;100.00;99679.16;5056667;28;20064;-67
2023/02/13 03:47:10;;;;;;;51.65;23.77;;;3.40;99.90;;;3.04;100.00;99679.00;5058148;28;20454;-66
2023/02/13 03:50:07;;;;;;;42.22;21.52;;;3.30;99.90;;;3.13;100.00;99684.34;5062803;28;20059;-67
2023/02/13 03:53:10;;;;;;;34.15;20.00;;;3.30;99.90;;;3.05;100.00;99680.72;5061154;28;20049;-66
2023/02/13 04:01:25;;;;;;;47.85;21.85;;;3.10;99.90;;;3.04;100.00;99673.03;5059952;28;20048;-66
2023/02/13 04:04:04;;;;;;;33.13;17.80;;;3.00;99.90;;;3.02;100.00;99672.13;5056939;28;20283;-66
2023/02/13 04:06:39;;;;;;;52.97;21.45;;;2.90;99.90;;;2.96;100.00;99672.84;5053630;28;20422;-66
2023/02/13 04:09:06;;;;;;;32.63;17.40;;;2.90;99.90;;;3.00;100.00;99669.50;5091092;28;20500;-66
2023/02/13 04:12:01;;;;;;;35.83;18.77;;;2.90;99.90;;;2.81;100.00;99662.25;5058647;28;20056;-66
2023/02/13 04:14:47;;;;;;;38.15;19.88;;;2.80;99.90;;;2.85;100.00;99664.03;5064937;28;20075;-66
2023/02/13 04:17:24;;;;;;;34.30;19.40;;;2.70;99.90;;;2.69;100.00;99655.13;5049675;28;20049;-66
2023/02/13 04:19:50;;;;;;;66.15;21.65;;;2.60;99.90;;;2.63;100.00;99653.31;5086449;28;20044;-66
2023/02/13 04:22:18;;;;;;;38.22;20.77;;;2.60;99.90;;;2.45;100.00;99658.03;5078378;28;20067;-66
2023/02/13 04:24:45;;;;;;;43.97;20.55;;;2.50;99.90;;;2.46;100.00;99652.06;5063197;28;20041;-66
2023/02/13 04:27:15;;;;;;;37.70;20.05;;;2.50;99.90;;;2.36;100.00;99660.38;5090450;28;20064;-66
2023/02/13 04:29:43;;;;;;;49.42;22.45;;;2.40;99.90;;;2.27;100.00;99659.31;5064852;28;20052;-66
2023/02/13 04:32:11;;;;;;;57.30;22.42;;;2.30;99.90;;;2.19;100.00;99665.06;5054079;28;20777;-67
2023/02/13 04:34:38;;;;;;;54.15;24.15;;;2.30;99.90;;;2.18;100.00;99656.53;5058723;28;20143;-66
2023/02/13 04:37:05;;;;;;;55.75;25.17;;;2.20;99.90;;;2.19;100.00;99663.41;5054904;28;20044;-66
2023/02/13 04:39:33;;;;;;;37.83;20.25;;;2.20;99.90;;;2.07;100.00;99666.50;5054416;28;21778;-66
2023/02/13 04:42:00;;;;;;;47.65;22.02;;;2.20;99.90;;;2.07;100.00;99665.66;5057452;28;20049;-66
2023/02/13 04:44:27;;;;;;;61.28;26.08;;;2.20;99.90;;;1.90;100.00;99654.13;5065140;28;20049;-66
2023/02/13 04:46:54;;;;;;;82.45;29.27;;;2.20;99.90;;;1.86;100.00;99660.84;5056069;28;20144;-66
2023/02/13 04:49:21;;;;;;;50.92;24.92;;;2.10;99.90;;;1.97;100.00;99662.00;5058911;28;20052;-66
2023/02/13 04:51:48;;;;;;;55.80;25.27;;;2.20;99.90;;;2.04;100.00;99663.88;5063578;28;20049;-66
2023/02/13 04:54:14;;;;;;;46.50;22.20;;;2.20;99.90;;;2.12;100.00;99665.75;5092681;28;20040;-66
2023/02/13 04:56:41;;;;;;;43.97;21.63;;;2.30;99.90;;;2.09;100.00;99664.84;5058533;28;20048;-66
2023/02/13 04:59:08;;;;;;;54.72;20.85;;;2.40;99.90;;;2.27;100.00;99661.03;5059630;28;20507;-66
2023/02/13 05:01:35;;;;;;;77.32;25.98;;;2.40;99.90;;;2.22;100.00;99662.59;5054698;28;20454;-66
2023/02/13 05:04:02;;;;;;;89.40;24.88;;;2.40;99.90;;;2.30;100.00;99667.09;5057512;28;20055;-66
2023/02/13 05:06:29;;;;;;;93.40;25.38;;;2.40;99.90;;;2.32;100.00;99667.09;5055731;28;20479;-67
2023/02/13 05:08:56;;;;;;;35.10;20.63;;;2.50;99.90;;;2.33;100.00;99662.84;5062889;28;20053;-66
2023/02/13 05:11:23;;;;;;;49.17;20.75;;;2.50;99.90;;;2.19;100.00;99667.63;5055334;28;20045;-66
2023/02/13 05:13:50;;;;;;;230.60;28.63;;;2.60;99.90;;;2.16;100.00;99665.88;5058780;28;20045;-66
2023/02/13 05:16:17;;;;;;;160.98;27.75;;;2.50;99.90;;;2.17;100.00;99664.19;5059215;28;20138;-66
2023/02/13 05:18:44;;;;;;;199.63;28.98;;;2.50;99.90;;;2.14;100.00;99667.53;5055664;28;20052;-68
2023/02/13 05:23:57;;;;;;;144.98;27.88;;;2.40;99.90;;;2.18;100.00;99677.03;5055777;28;20067;-66
2023/02/13 05:26:24;;;;;;;173.85;29.20;;;2.50;99.90;;;2.11;100.00;99676.84;5058325;28;20052;-66
2023/02/13 05:31:36;;;;;;;180.25;29.48;;;2.50;99.90;;;2.15;100.00;99670.97;5057046;28;20052;-67
2023/02/13 05:34:03;;;;;;;197.60;28.05;;;2.50;99.90;;;2.15;100.00;99678.66;5056401;28;20131;-66
2023/02/13 05:36:30;;;;;;;62.33;21.33;;;2.50;99.90;;;2.21;100.00;99677.13;5056115;28;20497;-66
2023/02/13 05:38:57;;;;;;;331.90;33.92;;;2.60;99.90;;;2.12;100.00;99673.44;5053974;28;20463;-66
2023/02/13 05:41:24;;;;;;;414.63;32.78;;;2.60;99.90;;;2.16;100.00;99672.69;5061301;28;20365;-66
2023/02/13 05:43:51;;;;;;;218.65;29.45;;;2.60;99.90;;;2.13;100.00;99675.19;5061563;28;20162;-67
2023/02/13 05:46:18;;;;;;;91.28;21.35;;;2.60;99.90;;;2.31;100.00;99667.97;5089323;28;20475;-67
2023/02/13 05:48:45;;;;;;;340.65;30.75;;;2.60;99.90;;;2.23;100.00;99660.06;5060846;28;20530;-66
2023/02/13 05:51:12;;;;;;;312.73;29.73;;;2.60;99.90;;;2.28;100.00;99657.59;5056922;28;20206;-67
2023/02/13 05:53:39;;;;;;;502.08;39.42;;;2.60;99.90;;;2.18;100.00;99651.41;5062991;28;20051;-66
2023/02/13 05:56:06;;;;;;;410.75;35.70;;;2.60;99.90;;;2.15;100.00;99656.47;5039720;28;20045;-66
2023/02/13 05:58:33;;;;;;;231.00;25.23;;;2.60;99.90;;;2.27;100.00;99664.44;5056126;28;20053;-66
2023/02/13 06:01:01;;;;;;;345.33;33.60;;;2.60;99.90;;;2.17;100.00;99656.50;5056386;28;20051;-66
2023/02/13 06:03:29;;;;;;;79.72;20.23;;;2.60;99.90;;;2.17;100.00;99665.06;5049804;28;20048;-66
2023/02/13 06:06:00;;;;;;;309.48;28.55;;;2.60;99.90;;;1.98;100.00;99666.28;5058072;28;20051;-66
2023/02/13 06:08:27;;;;;;;334.35;28.52;;;2.40;99.90;;;1.91;100.00;99668.66;5055657;28;20049;-66
2023/02/13 06:10:54;;;;;;;289.95;27.27;;;2.40;99.90;;;1.92;100.00;99663.59;5062566;28;20052;-66
2023/02/13 06:13:21;;;;;;;149.15;24.83;;;2.30;99.90;;;2.00;100.00;99667.19;5059523;28;20049;-67
2023/02/13 06:15:49;;;;;;;176.10;23.30;;;2.40;99.90;;;2.07;100.00;99660.53;5053923;28;20044;-66
2023/02/13 06:18:16;;;;;;;50.60;18.92;;;2.40;99.90;;;2.13;100.00;99664.94;5068340;28;20107;-66
2023/02/13 06:20:43;;;;;;;161.63;22.98;;;2.50;99.90;;;1.99;100.00;99672.28;5055866;28;20083;-66
2023/02/13 06:23:11;;;;;;;263.00;29.85;;;2.50;99.90;;;1.86;100.00;99665.97;5055589;28;20048;-67
2023/02/13 06:25:38;;;;;;;183.48;22.40;;;2.40;99.90;;;2.19;100.00;99663.41;5056208;28;20130;-66
2023/02/13 06:28:05;;;;;;;287.80;28.00;;;2.50;99.90;;;2.02;100.00;99662.09;5057505;28;20048;-67
2023/02/13 06:30:33;;;;;;;238.48;23.88;;;2.40;99.90;;;2.02;100.00;99659.56;5053403;28;20045;-66
2023/02/13 06:33:00;;;;;;;336.10;30.52;;;2.40;99.90;;;2.00;100.00;99674.88;5055127;28;20401;-66
2023/02/13 06:35:27;;;;;;;227.75;23.73;;;2.50;99.90;;;2.02;100.00;99670.66;5055728;28;20056;-66
2023/02/13 06:37:54;;;;;;;324.55;34.42;;;2.50;99.90;;;1.98;100.00;99675.66;5058249;28;20074;-66
2023/02/13 06:40:21;;;;;;;175.63;23.70;;;2.50;99.90;;;2.00;100.00;99671.44;5054256;28;20384;-67
2023/02/13 06:42:48;;;;;;;200.15;22.50;;;2.50;99.90;;;2.06;100.00;99667.34;5055957;28;20060;-66
2023/02/13 06:45:15;;;;;;;288.45;28.58;;;2.50;99.90;;;1.96;100.00;99673.09;5056068;28;20060;-67
2023/02/13 06:47:45;;;;;;;248.00;25.27;;;2.50;99.90;;;1.97;100.00;99679.06;5054409;28;20052;-66
2023/02/13 06:50:15;;;;;;;444.55;32.53;;;2.50;99.90;;;1.94;100.00;99673.84;5054151;28;20063;-66
2023/02/13 06:52:50;;;;;;;477.52;30.17;;;2.50;99.90;;;1.85;100.00;99671.94;5053160;28;20139;-66
2023/02/13 06:55:19;;;;;;;421.05;28.08;;;2.40;99.90;;;1.94;100.00;99682.41;5053083;28;20090;-65
2023/02/13 06:57:47;;;;;;;463.30;32.72;;;2.40;99.90;;;1.79;100.00;99680.31;5061200;28;20076;-66
2023/02/13 07:00:16;;;;;;;540.30;35.95;;;2.40;99.90;;;1.78;100.00;99683.72;5054372;28;20156;-66
2023/02/13 07:02:46;;;;;;;83.40;17.33;;;2.30;99.90;;;2.04;100.00;99693.75;5056991;28;20490;-65
2023/02/13 07:05:13;;;;;;;73.55;15.43;;;2.40;99.90;;;2.11;100.00;99690.50;5058067;28;20072;-66
2023/02/13 07:07:42;;;;;;;568.60;40.30;;;2.60;99.90;;;1.89;100.00;99689.09;5057338;28;20053;-65
2023/02/13 07:10:12;;;;;;;434.13;32.35;;;2.50;99.90;;;1.94;100.00;99697.78;5052217;28;20053;-65
2023/02/13 07:12:39;;;;;;;426.85;35.50;;;2.50;99.90;;;1.92;100.00;99694.31;5057806;28;20076;-66
2023/02/13 07:15:07;;;;;;;248.40;24.98;;;2.50;99.90;;;2.00;100.00;99702.19;5057353;28;20052;-66
2023/02/13 07:17:34;;;;;;;374.00;29.33;;;2.50;99.90;;;1.84;100.00;99700.91;5048035;28;20052;-66
2023/02/13 07:20:03;;;;;;;273.08;25.23;;;2.40;99.90;;;1.80;100.00;99701.66;5060363;28;20051;-66
2023/02/13 07:22:31;;;;;;;337.70;30.80;;;2.40;99.90;;;1.79;100.00;99702.50;5057913;28;20118;-66
2023/02/13 07:25:03;;;;;;;186.15;21.75;;;2.40;99.90;;;1.78;100.00;99704.19;5059619;28;20048;-66
2023/02/13 07:27:30;;;;;;;396.23;32.95;;;2.40;99.90;;;1.90;100.00;99697.66;5058458;28;20135;-66
2023/02/13 07:29:57;;;;;;;329.92;25.85;;;2.50;99.90;;;1.80;100.00;99697.44;5061782;28;20515;-66
2023/02/13 07:32:24;;;;;;;368.15;27.90;;;2.40;99.90;;;1.86;100.00;99707.81;5066019;28;20048;-67
2023/02/13 07:34:52;;;;;;;225.30;25.55;;;2.50;99.90;;;1.99;100.00;99709.00;5059461;28;20538;-67
2023/02/13 07:37:30;;;;;;;293.35;27.88;;;2.50;99.90;;;2.02;100.00;99711.63;5061716;28;20079;-67
2023/02/13 07:39:57;;;;;;;308.83;28.38;;;2.60;99.90;;;1.99;100.00;99708.16;5056682;28;20098;-66
2023/02/13 07:42:24;;;;;;;104.15;20.52;;;2.60;99.90;;;2.12;100.00;99711.88;5058082;28;20579;-66
2023/02/13 07:44:51;;;;;;;194.65;25.55;;;2.80;99.90;;;2.12;100.00;99719.56;5062763;28;20053;-66
2023/02/13 07:47:18;;;;;;;406.50;31.38;;;2.90;99.90;;;2.06;100.00;99718.59;5061164;28;20060;-67
2023/02/13 07:49:46;;;;;;;299.98;24.88;;;2.90;99.90;;;2.13;100.00;99709.34;5057547;28;20059;-66
2023/02/13 07:52:13;;;;;;;229.73;25.30;;;3.00;99.90;;;2.29;100.00;99718.31;5065137;28;20522;-65
2023/02/13 07:54:46;;;;;;;628.72;38.45;;;3.10;99.90;;;2.49;100.00;99713.66;5060873;28;20053;-67
2023/02/13 07:57:15;;;;;;;142.45;20.95;;;3.10;99.90;;;2.57;100.00;99716.41;5059492;28;20278;-67
2023/02/13 07:59:42;;;;;;;198.55;25.95;;;3.30;99.90;;;2.66;100.00;99721.75;5061433;28;20094;-67
2023/02/13 08:02:13;;;;;;;141.23;22.25;;;3.40;99.90;;;2.75;100.00;99715.97;5057212;28;20140;-67
2023/02/13 08:04:44;;;;;;;87.40;21.50;;;3.60;99.90;;;2.73;100.00;99705.66;5057669;28;20189;-67
2023/02/13 08:07:13;;;;;;;188.43;24.55;;;3.70;99.90;;;2.96;100.00;99703.63;5055713;28;20134;-67
2023/02/13 08:12:29;;;;;;;209.60;23.70;;;3.70;99.90;;;2.92;100.00;99697.56;5062035;28;20142;-67
2023/02/13 08:14:56;;;;;;;161.05;22.27;;;3.80;99.90;;;3.12;100.00;99697.13;5060324;28;20055;-65
2023/02/13 08:17:23;;;;;;;73.22;19.60;;;3.70;99.90;;;3.05;100.00;99700.41;5059288;28;20049;-66
2023/02/13 08:19:50;;;;;;;132.25;21.27;;;3.90;99.90;;;3.15;100.00;99686.94;5058817;28;20748;-66
2023/02/13 08:22:17;;;;;;;251.70;25.33;;;3.90;99.90;;;3.06;100.00;99686.75;5052880;28;20490;-66
2023/02/13 08:24:44;;;;;;;54.08;19.40;;;3.90;99.90;;;3.18;100.00;99694.69;5056829;28;20053;-66
2023/02/13 08:27:13;;;;;;;132.02;21.40;;;4.00;99.90;;;3.28;100.00;99686.34;5059337;28;20685;-66
2023/02/13 08:29:40;;;;;;;76.03;20.90;;;4.00;99.90;;;3.16;100.00;99690.38;5057313;28;20045;-66
2023/02/13 08:32:07;;;;;;;78.82;22.30;;;4.20;99.90;;;3.33;100.00;99687.31;5065740;28;20058;-66
2023/02/13 08:34:34;;;;;;;89.45;20.90;;;4.30;99.90;;;3.45;100.00;99688.41;5056414;28;20124;-65
2023/02/13 08:37:02;;;;;;;48.97;20.27;;;4.30;99.90;;;3.43;100.00;99682.38;5055807;28;20055;-65
2023/02/13 08:39:30;;;;;;;96.15;22.58;;;;;;;3.58;100.00;99681.78;5049510;28;20044;-68
2023/02/13 08:41:57;;;;;;;76.25;22.10;;;4.40;99.90;;;3.56;100.00;99674.94;5059654;28;20055;-66
2023/02/13 08:44:24;;;;;;;52.28;20.58;;;4.40;99.90;;;3.48;100.00;99671.34;5059377;28;20048;-66
2023/02/13 08:46:52;;;;;;;78.63;21.27;;;;;;;3.38;100.00;99673.72;5049049;28;20044;-66
2023/02/13 08:49:19;;;;;;;61.55;21.25;;;4.40;99.90;;;3.41;100.00;99666.94;5073195;28;20436;-65
2023/02/13 08:51:49;;;;;;;56.53;23.00;;;4.50;99.90;;;3.78;100.00;99672.75;5058846;28;20211;-66
2023/02/13 08:54:16;;;;;;;91.43;23.88;;;4.60;99.90;;;3.69;100.00;99670.88;5058712;28;20045;-66
2023/02/13 08:56:43;;;;;;;72.07;26.02;;;4.80;99.90;;;3.77;100.00;99668.47;5057570;28;20045;-66
2023/02/13 08:59:10;;;;;;;57.63;21.38;;;4.80;99.90;;;3.62;100.00;99661.31;5060728;28;20048;-66
2023/02/13 09:01:37;;;;;;;67.45;21.92;;;4.80;99.90;;;3.73;100.00;99661.53;5055574;28;20060;-66
2023/02/13 09:04:05;;;;;;;44.17;24.65;;;4.80;99.90;;;3.98;100.00;99657.69;5053477;28;20155;-65
2023/02/13 09:06:32;;;;;;;39.20;22.80;;;4.80;99.90;;;4.12;100.00;99657.94;5059614;28;20060;-66
2023/02/13 09:08:59;;;;;;;42.75;21.17;;;4.80;99.90;;;3.74;100.00;99658.13;5062354;28;20055;-66
2023/02/13 09:11:26;;;;;;;43.10;19.73;;;4.90;99.90;;;3.74;100.00;99664.13;5066396;28;20352;-66
2023/02/13 09:13:54;;;;;;;38.75;21.65;;;5.00;99.90;;;4.16;100.00;99664.84;5053441;28;20049;-66
2023/02/13 09:16:21;;;;;;;36.58;21.55;;;5.00;99.90;;;4.27;100.00;99660.75;5053688;28;20049;-66
2023/02/13 09:18:51;;;;;;;42.80;22.63;;;5.10;99.90;;;4.43;100.00;99653.28;5059795;28;20052;-66
2023/02/13 09:21:22;;;;;;;29.80;20.27;;;5.10;99.90;;;4.36;100.00;99642.06;5056367;28;20052;-67
2023/02/13 09:23:50;;;;;;;29.25;19.40;;;5.20;99.90;;;4.39;100.00;99642.94;5059557;28;20052;-66
2023/02/13 09:26:19;;;;;;;31.67;20.70;;;5.10;99.90;;;4.08;100.00;99639.03;5058429;28;20052;-66
2023/02/13 09:28:47;;;;;;;38.85;23.27;;;5.00;99.90;;;4.11;100.00;99633.09;5055797;28;20056;-66
2023/02/13 09:31:18;;;;;;;35.10;22.52;;;4.80;99.90;;;4.12;100.00;99632.22;5062389;28;20080;-67
2023/02/13 09:33:47;;;;;;;31.55;21.15;;;4.70;99.90;;;4.30;100.00;99629.94;5061762;28;20052;-66
2023/02/13 09:36:22;;;;;;;36.42;22.08;;;4.80;99.90;;;4.24;100.00;99639.28;5054246;28;20080;-66
2023/02/13 09:38:55;;;;;;;30.67;20.38;;;4.80;99.90;;;4.33;100.00;99635.16;5061673;28;20045;-65
2023/02/13 09:41:31;;;;;;;30.30;19.65;;;4.80;99.90;;;4.32;100.00;99637.69;5057903;28;20052;-66
2023/02/13 09:44:41;;;;;;;41.72;24.15;;;4.80;99.90;;;4.45;100.00;99631.91;5069024;28;20044;-66
2023/02/13 09:47:15;;;;;;;40.42;25.67;;;4.80;99.90;;;4.66;100.00;99638.19;5052619;28;20056;-64
2023/02/13 09:49:59;;;;;;;43.35;29.40;;;5.00;99.90;;;4.64;100.00;99642.47;5059463;28;20056;-62
2023/02/13 09:52:32;;;;;;;31.35;20.30;;;5.10;99.90;;;4.60;100.00;99644.09;5087453;28;20048;-65
2023/02/13 09:55:00;;;;;;;;;;;5.10;99.90;;;4.77;100.00;99644.38;5060555;28;20426;-64
2023/02/13 09:57:36;;;;;;;31.08;19.85;;;5.10;99.90;;;4.75;100.00;99638.31;5062433;28;19954;-64
2023/02/13 10:00:21;;;;;;;34.92;20.98;;;5.20;99.90;;;4.87;100.00;99643.63;5057604;28;20049;-64
2023/02/13 10:03:14;;;;;;;32.70;20.40;;;5.30;99.90;;;4.91;100.00;99639.41;5051198;28;20044;-65
2023/02/13 10:05:56;;;;;;;32.90;20.58;;;5.30;99.90;;;5.11;100.00;99644.78;5056484;28;20120;-64
2023/02/13 10:08:49;;;;;;;34.08;22.00;;;5.50;99.90;;;5.12;100.00;99643.97;5058631;28;20083;-66
2023/02/13 10:11:40;;;;;;;28.50;18.27;;;5.60;99.90;;;5.13;100.00;99645.66;5084987;28;20055;-66
2023/02/13 10:14:37;;;;;;;36.17;21.85;;;5.70;99.90;;;5.00;100.00;99634.38;5059663;28;20040;-66
2023/02/13 10:17:16;;;;;;;34.40;21.23;;;5.50;99.90;;;4.95;100.00;99636.88;5056370;28;20047;-65
2023/02/13 10:19:50;;;;;;;32.88;20.02;;;5.50;99.90;;;5.16;100.00;99633.72;5058198;28;20060;-66
2023/02/13 10:22:30;;;;;;;31.05;20.48;;;5.70;99.90;;;5.34;100.00;99640.78;5054943;28;20529;-66
2023/02/13 10:25:10;;;;;;;26.75;19.17;;;5.80;99.90;;;5.64;100.00;99622.22;5047963;28;20097;-67
2023/02/13 10:27:43;;;;;;;27.83;18.20;;;5.90;99.90;;;5.71;100.00;99623.16;5059522;28;20041;-66
2023/02/13 10:30:29;;;;;;;28.38;18.10;;;6.00;99.90;;;5.86;100.00;99622.41;5054985;28;20132;-66
2023/02/13 10:33:43;;;;;;;30.83;17.95;;;6.20;99.90;;;5.86;100.00;99619.84;5058109;28;20052;-66
2023/02/13 10:36:10;;;;;;;30.88;18.17;;;6.20;99.90;;;5.82;100.00;99612.94;5052025;28;20121;-66
2023/02/13 10:39:03;;;;;;;28.25;18.33;;;6.30;99.90;;;6.11;100.00;99602.91;5059527;28;20510;-66
2023/02/13 10:42:10;;;;;;;26.23;17.17;;;6.40;99.90;;;6.13;100.00;99593.47;5048633;28;20060;-66
2023/02/13 10:44:55;;;;;;;24.83;15.75;;;6.40;99.90;;;6.20;100.00;99589.22;5063583;28;20044;-66
2023/02/13 10:47:47;;;;;;;24.30;15.13;;;6.60;99.90;;;6.32;100.00;99576.44;5056885;28;20041;-66
2023/02/13 10:51:08;;;;;;;21.85;15.15;;;6.60;99.90;;;6.40;100.00;99568.72;5052946;28;20506;-67
2023/02/13 10:54:39;;;;;;;23.85;15.18;;;6.80;99.90;;;6.58;100.00;99563.66;5024380;28;20535;-67
2023/02/13 10:57:21;;;;;;;19.65;13.50;;;6.90;99.90;;;6.75;100.00;99561.19;5046132;28;20057;-66
2023/02/13 11:00:06;;;;;;;20.75;13.00;;;7.10;99.90;;;6.89;100.00;99549.19;5056506;28;20133;-66
2023/02/13 11:02:35;;;;;;;18.85;12.70;;;7.10;99.90;;;7.02;100.00;99542.34;5054940;28;20131;-66
2023/02/13 11:05:29;;;;;;;19.67;12.35;;;7.30;99.90;;;7.12;100.00;99533.78;5054431;28;20558;-66
2023/02/13 11:07:58;;;;;;;17.38;12.15;;;7.40;99.90;;;7.28;100.00;99526.94;5088581;28;20048;-66
2023/02/13 11:10:26;;;;;;;17.05;11.25;;;7.50;99.90;;;7.32;100.00;99526.09;5084364;28;20075;-66
2023/02/13 11:12:54;;;;;;;18.65;11.27;;;7.70;99.90;;;7.37;100.00;99525.19;5084852;28;20163;-67
2023/02/13 11:15:30;;;;;;;18.17;12.02;;;7.70;99.90;;;7.45;100.00;99516.59;5085211;28;20055;-66
2023/02/13 11:18:10;;;;;;;14.63;10.38;;;7.80;99.90;;;7.71;100.00;99505.44;5087962;28;20124;-66